Time,TemperatureF,DewpointF,PressureIn,WindDirection,WindDirectionDegrees,WindSpeedMPH,WindSpeedGustMPH,Humidity,HourlyPrecipIn,Conditions,Clouds,dailyrainin,SoftwareType,DateUTC
2013-10-07 01:11:00,37.0,36.0,-100.00,South,180,1.0,2.0,98,-99.99,,,-99.99,,2013-10-07 06:11:00,
2013-10-07 01:42:00,37.0,36.0,-100.00,South,180,1.0,2.0,98,-99.99,,,-99.99,,2013-10-07 06:42:00,
2013-10-07 01:53:00,37.0,36.0,-100.00,South,180,1.0,2.0,98,-99.99,,,-99.99,,2013-10-07 06:53:00,
2013-10-07 02:01:00,37.0,36.0,-100.00,South,180,1.0,2.0,98,-99.99,,,-99.99,,2013-10-07 07:01:00,
2013-10-07 07:43:00,34.0,34.0,-100.00,South,170,0.0,1.0,98,-99.99,,,-99.99,,2013-10-07 12:43:00,
2013-10-07 07:52:00,34.0,34.0,-100.00,South,170,0.0,1.0,98,-99.99,,,-99.99,,2013-10-07 12:52:00,
2013-10-07 08:02:00,34.0,34.0,-100.00,South,170,0.0,1.0,98,-99.99,,,-99.99,,2013-10-07 13:02:00,
2013-10-07 08:11:00,34.0,34.0,-100.00,South,170,0.0,1.0,98,-99.99,,,-99.99,,2013-10-07 13:11:00,
2013-10-07 11:43:00,55.0,42.0,-100.00,WNW,285,6.0,9.0,62,-99.99,,,-99.99,,2013-10-07 16:43:00,
2013-10-07 11:53:00,55.0,42.0,-100.00,WNW,285,6.0,9.0,62,-99.99,,,-99.99,,2013-10-07 16:53:00,
2013-10-07 12:03:00,55.0,42.0,-100.00,WNW,285,6.0,9.0,62,-99.99,,,-99.99,,2013-10-07 17:03:00,
2013-10-07 12:12:00,55.0,42.0,-100.00,WNW,285,6.0,9.0,62,-99.99,,,-99.99,,2013-10-07 17:12:00,
2013-10-07 18:42:00,60.0,32.0,-100.00,NW,310,0.0,2.0,34,-99.99,,,-99.99,,2013-10-07 23:42:00,
2013-10-07 18:52:00,60.0,32.0,-100.00,NW,310,0.0,2.0,34,-99.99,,,-99.99,,2013-10-07 23:52:00,
2013-10-07 19:02:00,60.0,32.0,-100.00,NW,310,0.0,2.0,34,-99.99,,,-99.99,,2013-10-08 00:02:00,
2013-10-07 19:11:00,60.0,32.0,-100.00,NW,310,0.0,2.0,34,-99.99,,,-99.99,,2013-10-08 00:11:00,
2013-10-07 21:42:00,43.0,42.0,-100.00,ENE,60,0.0,0.0,97,-99.99,,,-99.99,,2013-10-08 02:42:00,
2013-10-07 21:52:00,43.0,42.0,-100.00,ENE,60,0.0,0.0,97,-99.99,,,-99.99,,2013-10-08 02:52:00,
2013-10-07 22:02:00,43.0,42.0,-100.00,ENE,60,0.0,0.0,97,-99.99,,,-99.99,,2013-10-08 03:02:00,
2013-10-07 22:11:00,43.0,42.0,-100.00,ENE,60,0.0,0.0,97,-99.99,,,-99.99,,2013-10-08 03:11:00,
2013-10-07 22:13:00,41.0,40.0,-100.00,ENE,75,0.0,0.0,98,-99.99,,,-99.99,,2013-10-08 03:13:00,
2013-10-07 22:44:00,41.0,40.0,-100.00,ENE,75,0.0,0.0,98,-99.99,,,-99.99,,2013-10-08 03:44:00,
2013-10-07 22:55:00,41.0,40.0,-100.00,ENE,75,0.0,0.0,98,-99.99,,,-99.99,,2013-10-08 03:55:00,
2013-10-07 23:04:00,41.0,40.0,-100.00,ENE,75,0.0,0.0,98,-99.99,,,-99.99,,2013-10-08 04:04:00,
2013-10-07 23:12:00,40.0,40.0,-100.00,ENE,70,0.0,0.0,98,-99.99,,,-99.99,,2013-10-08 04:12:00,
2013-10-07 23:43:00,40.0,40.0,-100.00,ENE,70,0.0,0.0,98,-99.99,,,-99.99,,2013-10-08 04:43:00,
2013-10-07 23:53:00,40.0,40.0,-100.00,ENE,70,0.0,0.0,98,-99.99,,,-99.99,,2013-10-08 04:53:00,